Time;durP1;ratioP1;P1;durP2;ratioP2;P2;SDS_P1;SDS_P2;PMS_P1;PMS_P2;Temp;Humidity;BMP_temperature;BMP_pressure;BME280_temperature;BME280_humidity;BME280_pressure;Samples;Min_cycle;Max_cycle;Signal;HPM_P1;HPM_P2
2023/10/03 00:01:05;;;;;;;65.55;33.10;;;16.60;99.90;;;;;;5039187;28;20029;-72
2023/10/03 00:03:32;;;;;;;60.13;31.25;;;16.50;99.90;;;;;;5039839;28;20026;-73
2023/10/03 00:05:57;;;;;;;61.35;31.48;;;16.60;99.90;;;;;;5026057;28;20449;-73
2023/10/03 00:08:23;;;;;;;65.60;33.20;;;16.60;99.90;;;;;;5038594;28;20021;-75
2023/10/03 00:10:49;;;;;;;64.40;33.17;;;16.60;99.90;;;;;;5038636;28;20745;-74
2023/10/03 00:13:19;;;;;;;64.35;32.00;;;16.60;99.90;;;;;;5038614;28;20065;-73
2023/10/03 00:15:45;;;;;;;68.28;33.15;;;16.50;99.90;;;;;;5036882;28;20112;-73
2023/10/03 00:18:12;;;;;;;64.50;32.17;;;16.50;99.90;;;;;;5037068;28;20524;-73
2023/10/03 00:20:37;;;;;;;61.75;31.67;;;16.60;99.90;;;;;;5034605;28;20089;-73
2023/10/03 00:23:04;;;;;;;61.78;31.55;;;16.50;99.90;;;;;;5037370;28;20057;-73
2023/10/03 00:25:30;;;;;;;62.70;30.98;;;16.50;99.90;;;;;;5038052;28;20052;-73
2023/10/03 00:28:00;;;;;;;57.97;31.10;;;16.50;99.90;;;;;;5037763;28;20022;-74
2023/10/03 00:30:30;;;;;;;59.55;29.83;;;16.50;99.90;;;;;;5037969;28;20026;-75
2023/10/03 00:32:57;;;;;;;58.45;29.60;;;16.50;99.90;;;;;;5019327;28;20497;-74
2023/10/03 00:35:24;;;;;;;57.67;29.08;;;16.50;99.90;;;;;;5020285;28;20025;-73
2023/10/03 00:37:51;;;;;;;55.00;29.63;;;16.50;99.90;;;;;;5035782;28;20031;-74
2023/10/03 00:42:54;;;;;;;60.42;29.63;;;16.40;99.90;;;;;;5036179;28;20088;-74
2023/10/03 00:45:24;;;;;;;60.03;30.17;;;16.40;99.90;;;;;;5038473;28;20029;-75
2023/10/03 00:47:53;;;;;;;61.67;31.88;;;16.40;99.90;;;;;;5031026;28;20049;-74
2023/10/03 00:50:20;;;;;;;61.30;33.17;;;16.40;99.90;;;;;;5020044;28;20032;-76
2023/10/03 00:52:49;;;;;;;57.05;31.48;;;16.40;99.90;;;;;;5036472;28;20088;-74
2023/10/03 00:55:15;;;;;;;63.55;34.03;;;16.40;99.90;;;;;;5037399;28;20778;-74
2023/10/03 00:57:43;;;;;;;71.43;36.97;;;16.40;99.90;;;;;;5021299;28;20113;-74
2023/10/03 01:00:16;;;;;;;71.25;36.83;;;16.40;99.90;;;;;;5038931;28;20026;-73
2023/10/03 01:02:50;;;;;;;76.57;38.33;;;16.40;99.90;;;;;;5018500;28;20413;-73
2023/10/03 01:05:17;;;;;;;68.53;39.75;;;16.40;99.90;;;;;;5024242;28;20037;-74
2023/10/03 01:07:49;;;;;;;75.70;39.83;;;16.40;99.90;;;;;;5035881;28;20025;-75
2023/10/03 01:10:20;;;;;;;70.70;42.03;;;16.40;99.90;;;;;;5037765;28;20049;-73
2023/10/03 01:12:47;;;;;;;71.40;38.92;;;16.40;99.90;;;;;;5035430;28;20040;-73
2023/10/03 01:15:18;;;;;;;68.65;38.95;;;16.40;99.90;;;;;;5018837;28;20040;-75
2023/10/03 01:17:48;;;;;;;71.70;39.72;;;16.40;99.90;;;;;;5038882;28;20038;-75
2023/10/03 01:20:23;;;;;;;70.88;39.08;;;16.40;99.90;;;;;;5019438;28;20034;-74
2023/10/03 01:22:51;;;;;;;73.95;39.25;;;16.40;99.90;;;;;;5036522;28;20030;-74
2023/10/03 01:25:17;;;;;;;67.65;37.47;;;16.40;99.90;;;;;;5037271;28;20492;-73
2023/10/03 01:27:43;;;;;;;65.60;37.20;;;16.40;99.90;;;;;;5018411;28;20033;-73
2023/10/03 01:30:12;;;;;;;55.28;31.88;;;16.40;99.90;;;;;;5021617;28;20033;-75
2023/10/03 01:32:43;;;;;;;60.75;34.55;;;16.40;99.90;;;;;;5016590;28;20559;-74
2023/10/03 01:35:11;;;;;;;63.30;33.13;;;16.40;99.90;;;;;;5036554;28;20640;-75
2023/10/03 01:37:38;;;;;;;59.25;34.50;;;16.40;99.90;;;;;;5034189;28;20037;-75
2023/10/03 01:40:14;;;;;;;58.03;32.70;;;16.40;99.90;;;;;;5037440;28;20037;-75
2023/10/03 01:42:45;;;;;;;57.90;31.77;;;16.40;99.90;;;;;;5034919;28;20096;-74
2023/10/03 01:45:22;;;;;;;56.78;30.70;;;16.40;99.90;;;;;;5036368;28;20169;-74
2023/10/03 01:47:50;;;;;;;51.88;30.40;;;16.30;99.90;;;;;;5034572;28;20049;-74
2023/10/03 01:50:19;;;;;;;57.03;30.65;;;16.30;99.90;;;;;;5040622;28;20023;-73
2023/10/03 01:52:49;;;;;;;53.88;29.23;;;16.30;99.90;;;;;;5037538;28;20025;-73
2023/10/03 01:55:17;;;;;;;56.40;30.40;;;16.30;99.90;;;;;;5037094;28;20033;-74
2023/10/03 01:57:44;;;;;;;57.80;31.63;;;16.30;99.90;;;;;;5035917;28;20024;-74
2023/10/03 02:02:44;;;;;;;51.35;27.90;;;16.30;99.90;;;;;;5034751;28;20033;-75
2023/10/03 02:05:11;;;;;;;50.20;27.73;;;16.30;99.90;;;;;;5016012;28;20375;-75
2023/10/03 02:07:37;;;;;;;51.15;26.20;;;16.30;99.90;;;;;;5036238;28;20021;-74
2023/10/03 02:10:03;;;;;;;51.38;27.33;;;16.30;99.90;;;;;;5035369;28;20045;-74
2023/10/03 02:12:29;;;;;;;45.25;25.05;;;16.30;99.90;;;;;;5035654;28;20033;-74
2023/10/03 02:14:55;;;;;;;50.13;26.33;;;16.30;99.90;;;;;;5033646;28;20075;-75
2023/10/03 02:17:21;;;;;;;47.70;25.63;;;16.30;99.90;;;;;;5019864;28;20021;-75
2023/10/03 02:19:48;;;;;;;46.35;26.67;;;16.30;99.90;;;;;;5035207;28;20032;-76
2023/10/03 02:22:13;;;;;;;51.33;26.73;;;16.20;99.90;;;;;;5036656;28;20021;-74
2023/10/03 02:24:39;;;;;;;43.85;25.40;;;16.30;99.90;;;;;;5041223;28;20025;-73
2023/10/03 02:27:09;;;;;;;44.10;25.20;;;16.30;99.90;;;;;;5027499;28;20047;-74
2023/10/03 02:29:35;;;;;;;46.38;25.45;;;16.20;99.90;;;;;;5039787;28;20028;-73
2023/10/03 02:32:05;;;;;;;48.33;26.00;;;16.20;99.90;;;;;;5039539;28;20029;-74
2023/10/03 02:34:33;;;;;;;46.05;23.67;;;16.20;99.90;;;;;;5021708;28;20033;-73
2023/10/03 02:36:59;;;;;;;45.03;23.27;;;16.20;99.90;;;;;;5025104;28;20477;-74
2023/10/03 02:39:28;;;;;;;49.10;22.40;;;16.20;99.90;;;;;;5045821;28;20044;-75
2023/10/03 02:41:54;;;;;;;44.75;22.52;;;16.20;99.90;;;;;;5037731;28;20018;-74
2023/10/03 02:44:19;;;;;;;43.42;21.25;;;16.20;99.90;;;;;;5031903;28;20029;-75
2023/10/03 02:46:45;;;;;;;37.92;19.80;;;16.10;99.90;;;;;;5046252;28;20049;-74
2023/10/03 02:49:11;;;;;;;43.78;20.70;;;16.20;99.90;;;;;;5024784;28;20032;-74
2023/10/03 02:51:37;;;;;;;41.88;19.83;;;16.20;99.90;;;;;;5043012;28;20037;-74
2023/10/03 02:54:03;;;;;;;34.10;18.67;;;16.20;99.90;;;;;;5045492;28;20112;-73
2023/10/03 02:56:28;;;;;;;36.67;18.23;;;16.20;99.90;;;;;;5044917;28;20060;-72
2023/10/03 02:58:55;;;;;;;37.13;18.35;;;16.10;99.90;;;;;;5046125;28;20025;-73
2023/10/03 03:01:24;;;;;;;36.90;18.27;;;16.20;99.90;;;;;;5029088;28;20034;-73
2023/10/03 03:03:50;;;;;;;36.08;17.55;;;16.10;99.90;;;;;;5027693;28;20037;-72
2023/10/03 03:06:15;;;;;;;34.72;17.48;;;16.20;99.90;;;;;;5028683;28;20025;-73
2023/10/03 03:08:44;;;;;;;35.65;16.80;;;16.10;99.90;;;;;;5045752;28;20067;-73
2023/10/03 03:11:09;;;;;;;35.25;16.98;;;16.10;99.90;;;;;;5045522;28;20060;-73
2023/10/03 03:13:36;;;;;;;33.53;16.58;;;16.20;99.90;;;;;;5045534;28;20032;-74
2023/10/03 03:16:03;;;;;;;31.65;16.02;;;16.10;99.90;;;;;;5045350;28;20018;-72
2023/10/03 03:18:41;;;;;;;38.38;17.13;;;16.10;99.90;;;;;;5027540;28;20037;-73
2023/10/03 03:21:15;;;;;;;35.22;16.42;;;16.10;99.90;;;;;;5045852;28;20033;-72
2023/10/03 03:23:55;;;;;;;32.58;16.38;;;16.10;99.90;;;;;;5045457;28;20037;-73
2023/10/03 03:26:22;;;;;;;30.77;15.98;;;16.10;99.90;;;;;;5045421;28;20054;-73
2023/10/03 03:28:49;;;;;;;35.25;16.23;;;16.00;99.90;;;;;;5026854;28;20041;-71
2023/10/03 03:33:46;;;;;;;31.17;15.25;;;16.00;99.90;;;;;;5045269;28;20037;-73
2023/10/03 03:36:19;;;;;;;29.65;15.13;;;16.00;99.90;;;;;;5045115;28;20040;-73
2023/10/03 03:38:49;;;;;;;37.60;16.95;;;16.00;99.90;;;;;;5026439;28;20119;-73
2023/10/03 03:41:16;;;;;;;34.33;16.13;;;16.00;99.90;;;;;;5027717;28;20060;-72
2023/10/03 03:43:45;;;;;;;41.10;16.58;;;16.00;99.90;;;;;;5045369;28;20047;-73
2023/10/03 03:46:12;;;;;;;32.85;16.25;;;16.00;99.90;;;;;;5044122;28;20049;-72
2023/10/03 03:48:38;;;;;;;31.88;15.82;;;16.00;99.90;;;;;;5027113;28;20033;-72
2023/10/03 03:51:14;;;;;;;28.98;15.13;;;16.00;99.90;;;;;;5027104;28;20079;-72
2023/10/03 03:53:42;;;;;;;36.05;15.80;;;16.00;99.90;;;;;;5026686;28;20043;-74
2023/10/03 03:56:08;;;;;;;30.13;15.98;;;16.00;99.90;;;;;;5044470;28;20087;-73
2023/10/03 03:58:36;;;;;;;41.03;15.93;;;16.00;99.90;;;;;;5044480;28;20410;-71
2023/10/03 04:01:06;;;;;;;36.08;16.33;;;16.00;99.90;;;;;;5044722;28;20036;-73
2023/10/03 04:03:34;;;;;;;33.42;15.20;;;16.00;99.90;;;;;;5044538;28;20021;-74
2023/10/03 04:06:01;;;;;;;34.22;14.60;;;16.00;99.90;;;;;;5044572;28;20021;-72
2023/10/03 04:08:26;;;;;;;35.85;16.45;;;16.00;99.90;;;;;;5044536;28;20034;-73
2023/10/03 04:10:54;;;;;;;32.92;15.32;;;16.00;99.90;;;;;;5044495;28;20044;-73
2023/10/03 04:13:21;;;;;;;32.80;15.57;;;16.00;99.90;;;;;;5044699;28;20046;-74
2023/10/03 04:15:47;;;;;;;33.55;15.10;;;16.00;99.90;;;;;;5026150;28;20030;-73
2023/10/03 04:18:16;;;;;;;34.05;16.15;;;16.00;99.90;;;;;;5044795;28;20079;-73
2023/10/03 04:20:46;;;;;;;32.53;15.00;;;16.00;99.90;;;;;;5044152;28;20029;-73
2023/10/03 04:23:14;;;;;;;33.13;15.32;;;16.00;99.90;;;;;;5026880;28;20052;-72
2023/10/03 04:25:40;;;;;;;35.80;15.45;;;16.00;99.90;;;;;;5024570;28;20038;-72
2023/10/03 04:28:07;;;;;;;34.78;15.55;;;16.10;99.90;;;;;;5026467;28;20055;-72
2023/10/03 04:30:33;;;;;;;31.55;14.85;;;16.00;99.90;;;;;;5026307;28;20053;-73
2023/10/03 04:32:59;;;;;;;39.55;15.75;;;16.10;99.90;;;;;;5026197;28;20068;-72
2023/10/03 04:35:25;;;;;;;33.40;15.23;;;16.10;99.90;;;;;;5043936;28;20048;-74
2023/10/03 04:37:57;;;;;;;34.60;15.55;;;16.10;99.90;;;;;;5044105;28;20029;-72
2023/10/03 04:40:37;;;;;;;33.60;14.77;;;16.10;99.90;;;;;;5044490;28;20105;-74
2023/10/03 04:43:07;;;;;;;34.95;15.00;;;16.10;99.90;;;;;;5026149;28;20037;-72
2023/10/03 04:45:35;;;;;;;36.60;15.63;;;16.10;99.90;;;;;;5043317;28;20093;-73
2023/10/03 04:48:01;;;;;;;33.50;14.52;;;16.10;99.90;;;;;;5042679;28;20046;-73
2023/10/03 04:50:27;;;;;;;31.58;14.10;;;16.10;99.90;;;;;;5043841;28;20034;-71
2023/10/03 04:52:54;;;;;;;30.60;14.82;;;16.10;99.90;;;;;;5022786;28;20069;-73
2023/10/03 04:55:22;;;;;;;36.63;14.98;;;16.00;99.90;;;;;;5039440;28;20531;-73
2023/10/03 04:57:51;;;;;;;31.60;14.68;;;16.10;99.90;;;;;;5044118;28;20030;-73
2023/10/03 05:00:21;;;;;;;32.85;14.85;;;16.10;99.90;;;;;;5043791;28;20073;-72
2023/10/03 05:02:52;;;;;;;35.00;14.18;;;16.10;99.90;;;;;;5043592;28;20037;-73
2023/10/03 05:05:23;;;;;;;38.13;15.15;;;16.10;99.90;;;;;;5044250;28;20030;-72
2023/10/03 05:07:53;;;;;;;33.97;15.27;;;16.10;99.90;;;;;;5026037;28;20041;-74
2023/10/03 05:10:20;;;;;;;36.47;15.32;;;16.10;99.90;;;;;;5043879;28;20017;-72
2023/10/03 05:12:47;;;;;;;33.88;15.40;;;16.10;99.90;;;;;;5025824;28;20079;-74
2023/10/03 05:15:14;;;;;;;35.95;15.43;;;16.10;99.90;;;;;;5043284;28;20075;-72
2023/10/03 05:17:40;;;;;;;30.38;14.55;;;16.10;99.90;;;;;;5043522;28;20029;-72
2023/10/03 05:20:07;;;;;;;33.50;14.88;;;16.10;99.90;;;;;;5042171;28;20029;-72
2023/10/03 05:22:32;;;;;;;36.38;14.65;;;16.10;99.90;;;;;;5040119;28;20034;-73
2023/10/03 05:25:01;;;;;;;36.20;14.27;;;16.10;99.90;;;;;;5025490;28;20033;-75
2023/10/03 05:27:30;;;;;;;35.55;15.10;;;16.10;99.90;;;;;;5027465;28;20025;-72
2023/10/03 05:30:05;;;;;;;37.38;15.40;;;16.10;99.90;;;;;;5025034;28;20034;-75
2023/10/03 05:32:31;;;;;;;41.25;14.85;;;16.10;99.90;;;;;;5025887;28;20048;-73
2023/10/03 05:35:00;;;;;;;32.55;14.63;;;16.10;99.90;;;;;;5043815;28;20040;-74
2023/10/03 05:37:26;;;;;;;36.67;15.40;;;16.20;99.90;;;;;;5022213;28;20030;-73
2023/10/03 05:39:53;;;;;;;37.70;15.32;;;16.20;99.90;;;;;;5043134;28;20037;-74
2023/10/03 05:42:18;;;;;;;33.83;14.20;;;16.30;99.90;;;;;;5025902;28;20047;-75
2023/10/03 05:44:45;;;;;;;39.85;13.93;;;16.30;99.90;;;;;;5042978;28;20033;-70
2023/10/03 05:47:11;;;;;;;41.28;14.40;;;16.50;99.90;;;;;;5043471;28;20120;-72
2023/10/03 05:49:45;;;;;;;34.60;14.32;;;16.60;99.90;;;;;;5042601;28;20227;-75
2023/10/03 05:52:22;;;;;;;31.27;13.68;;;16.70;99.90;;;;;;5025737;28;20049;-70
2023/10/03 05:54:48;;;;;;;36.60;14.43;;;16.80;99.90;;;;;;5025772;28;20163;-72
2023/10/03 05:57:13;;;;;;;35.28;13.23;;;16.90;99.90;;;;;;5026037;28;20088;-73
2023/10/03 05:59:39;;;;;;;32.55;13.38;;;17.00;99.90;;;;;;5045901;28;20359;-74
2023/10/03 06:02:05;;;;;;;31.75;13.70;;;17.10;99.90;;;;;;5046431;28;20029;-75
2023/10/03 06:04:36;;;;;;;37.53;14.15;;;17.20;99.90;;;;;;5045955;28;20167;-73
2023/10/03 06:07:06;;;;;;;37.03;14.45;;;17.30;99.90;;;;;;5046386;28;20025;-75
2023/10/03 06:09:33;;;;;;;33.20;13.50;;;17.30;99.90;;;;;;5045887;28;20093;-73
2023/10/03 06:11:59;;;;;;;34.08;13.63;;;17.40;99.90;;;;;;5046583;28;20094;-73
2023/10/03 06:14:25;;;;;;;35.30;14.35;;;17.40;99.90;;;;;;5046666;28;20025;-74
2023/10/03 06:16:50;;;;;;;34.53;14.43;;;17.50;99.90;;;;;;5028976;28;20041;-73
2023/10/03 06:19:18;;;;;;;37.08;14.80;;;17.60;99.90;;;;;;5045722;28;20072;-72
2023/10/03 06:21:43;;;;;;;39.42;15.68;;;17.60;99.90;;;;;;5046114;28;20025;-72
2023/10/03 06:24:09;;;;;;;38.45;15.25;;;17.70;99.90;;;;;;5045659;28;20025;-75
2023/10/03 06:26:34;;;;;;;35.85;14.27;;;17.80;99.90;;;;;;5029966;28;20031;-73
2023/10/03 06:29:00;;;;;;;37.67;14.45;;;17.90;99.90;;;;;;5031905;28;20044;-72
2023/10/03 06:31:25;;;;;;;35.30;14.35;;;18.00;99.90;;;;;;5045326;28;20033;-74
2023/10/03 06:33:51;;;;;;;34.50;14.15;;;18.10;99.90;;;;;;5046715;28;20041;-73
2023/10/03 06:36:17;;;;;;;34.65;13.95;;;18.20;99.90;;;;;;5046897;28;20033;-72
2023/10/03 06:38:42;;;;;;;35.25;13.80;;;18.20;99.90;;;;;;5046179;28;20034;-71
2023/10/03 06:41:09;;;;;;;35.08;13.30;;;18.40;99.90;;;;;;5046244;28;20035;-74
2023/10/03 06:43:34;;;;;;;40.55;14.98;;;18.40;99.90;;;;;;5046074;28;20025;-74
2023/10/03 06:46:10;;;;;;;32.60;13.45;;;18.50;99.90;;;;;;5023930;28;20036;-73
2023/10/03 06:48:35;;;;;;;31.05;13.18;;;18.60;99.90;;;;;;5043581;28;20041;-73
2023/10/03 06:51:04;;;;;;;30.48;11.85;;;18.60;99.90;;;;;;5045631;28;20049;-74
2023/10/03 06:53:31;;;;;;;30.20;12.35;;;18.60;99.90;;;;;;5045703;28;20048;-74
2023/10/03 06:55:57;;;;;;;31.00;12.40;;;18.60;99.90;;;;;;5046053;28;20022;-74
2023/10/03 06:58:22;;;;;;;35.80;13.82;;;18.70;99.90;;;;;;5028015;28;20029;-77
2023/10/03 07:00:55;;;;;;;33.05;14.38;;;18.70;99.90;;;;;;5045743;28;20080;-76
2023/10/03 07:03:22;;;;;;;34.55;13.35;;;18.70;99.90;;;;;;5045949;28;20036;-76
2023/10/03 07:05:48;;;;;;;32.42;13.48;;;18.80;99.90;;;;;;5045191;28;20052;-72
2023/10/03 07:08:14;;;;;;;30.98;12.38;;;18.80;99.90;;;;;;5028718;28;20029;-72
2023/10/03 07:10:42;;;;;;;33.78;13.80;;;18.80;99.90;;;;;;5031117;28;20041;-78
2023/10/03 07:13:09;;;;;;;33.00;13.82;;;18.80;99.90;;;;;;5027820;28;20506;-73
2023/10/03 07:15:35;;;;;;;32.28;13.27;;;18.80;99.90;;;;;;5045424;28;20028;-81
2023/10/03 07:18:03;;;;;;;30.45;13.38;;;18.80;99.90;;;;;;5027494;28;20033;-72
2023/10/03 07:20:29;;;;;;;30.88;12.85;;;18.90;99.90;;;;;;5044862;28;20057;-77
2023/10/03 07:22:54;;;;;;;31.20;13.05;;;18.90;99.90;;;;;;5044744;28;20040;-74
2023/10/03 07:25:20;;;;;;;30.35;12.68;;;18.90;99.90;;;;;;5045825;28;20036;-74
2023/10/03 07:27:48;;;;;;;34.03;13.90;;;18.90;99.90;;;;;;5027087;28;20054;-77
2023/10/03 07:30:15;;;;;;;29.35;11.77;;;18.90;99.90;;;;;;5024357;28;20018;-78
2023/10/03 07:32:41;;;;;;;34.00;12.95;;;19.00;99.90;;;;;;5025704;28;20041;-73
2023/10/03 07:35:11;;;;;;;29.20;13.48;;;19.00;99.90;;;;;;5024030;28;20049;-76
2023/10/03 07:37:39;;;;;;;29.20;12.32;;;19.10;99.90;;;;;;5025279;28;20029;-72
2023/10/03 07:40:06;;;;;;;29.15;11.70;;;19.10;99.90;;;;;;5027515;28;20052;-73
2023/10/03 07:42:32;;;;;;;28.35;12.73;;;19.20;99.90;;;;;;5026740;28;20393;-76
2023/10/03 07:44:57;;;;;;;30.88;11.98;;;19.30;99.90;;;;;;5024108;28;20086;-76
2023/10/03 07:47:23;;;;;;;33.17;12.05;;;19.30;99.90;;;;;;5040776;28;20072;-75
2023/10/03 07:49:49;;;;;;;25.83;11.20;;;19.30;99.90;;;;;;5027057;28;20025;-75
2023/10/03 07:52:18;;;;;;;27.27;12.10;;;19.40;99.90;;;;;;5027427;28;20037;-74
2023/10/03 07:54:54;;;;;;;27.00;11.88;;;19.40;99.90;;;;;;5045344;28;20064;-77
2023/10/03 07:57:25;;;;;;;27.27;10.82;;;19.60;99.90;;;;;;5045167;28;20025;-81
2023/10/03 07:59:52;;;;;;;31.38;10.25;;;19.70;99.90;;;;;;5030647;28;20060;-73
2023/10/03 08:02:18;;;;;;;29.33;11.80;;;19.70;99.90;;;;;;5039497;28;20502;-71
2023/10/03 08:04:46;;;;;;;22.05;10.05;;;19.70;99.90;;;;;;5038351;28;20026;-72
2023/10/03 08:07:21;;;;;;;23.70;10.60;;;19.70;99.90;;;;;;5039048;28;20079;-76
2023/10/03 08:09:48;;;;;;;24.88;10.32;;;19.70;99.90;;;;;;5026842;28;20525;-79
2023/10/03 08:12:22;;;;;;;30.10;10.95;;;19.80;99.90;;;;;;5028168;28;20128;-75
2023/10/03 08:14:51;;;;;;;24.27;9.40;;;19.90;99.90;;;;;;5023046;28;20037;-73
2023/10/03 08:17:25;;;;;;;21.40;9.27;;;20.00;99.90;;;;;;5046546;28;20022;-73
2023/10/03 08:19:52;;;;;;;27.40;10.88;;;20.10;99.90;;;;;;5043004;28;20033;-78
2023/10/03 08:22:20;;;;;;;25.15;9.23;;;20.10;99.90;;;;;;5044023;28;20076;-79
2023/10/03 08:24:47;;;;;;;25.05;8.85;;;20.10;99.90;;;;;;5032336;28;20030;-72
2023/10/03 08:27:21;;;;;;;24.63;8.85;;;20.10;99.90;;;;;;5042102;28;20041;-73
2023/10/03 08:29:50;;;;;;;25.08;9.65;;;20.00;99.90;;;;;;5042642;28;20377;-79
2023/10/03 08:32:17;;;;;;;22.15;9.77;;;20.00;99.90;;;;;;5025743;28;20049;-72
2023/10/03 08:34:46;;;;;;;26.38;9.60;;;19.90;99.90;;;;;;5026861;28;20503;-78
2023/10/03 08:37:21;;;;;;;27.60;10.52;;;19.80;99.90;;;;;;5044099;28;20029;-73
2023/10/03 08:39:51;;;;;;;28.30;10.07;;;19.70;99.90;;;;;;5026220;28;20025;-73
2023/10/03 08:42:34;;;;;;;26.27;10.95;;;19.60;99.90;;;;;;5044704;28;20065;-76
2023/10/03 08:45:16;;;;;;;26.42;10.82;;;19.50;99.90;;;;;;5026262;28;20041;-76
2023/10/03 08:47:48;;;;;;;27.48;10.68;;;19.40;99.90;;;;;;5043500;28;20049;-76
2023/10/03 08:50:29;;;;;;;29.85;10.63;;;19.30;99.90;;;;;;5043653;28;20052;-73
2023/10/03 08:52:56;;;;;;;26.65;10.65;;;19.20;99.90;;;;;;5027976;28;20042;-75
2023/10/03 08:55:26;;;;;;;26.05;10.40;;;19.20;99.90;;;;;;5048021;28;20024;-79
2023/10/03 08:57:52;;;;;;;16.92;7.35;;;19.10;99.90;;;;;;5043757;28;20021;-72
2023/10/03 09:00:25;;;;;;;18.80;7.40;;;19.10;99.90;;;;;;5026000;28;20026;-72
2023/10/03 09:02:59;;;;;;;19.73;8.75;;;19.10;99.90;;;;;;5044251;28;20456;-78
2023/10/03 09:05:25;;;;;;;;;;;19.20;99.90;;;;;;5023477;28;20038;-74
2023/10/03 09:07:51;;;;;;;19.88;6.72;;;19.30;99.90;;;;;;5020853;28;20020;-73
2023/10/03 09:10:25;;;;;;;14.05;6.82;;;19.50;99.90;;;;;;5019009;28;20026;-75
2023/10/03 09:13:04;;;;;;;17.70;6.53;;;19.60;99.90;;;;;;5041020;28;20080;-73
2023/10/03 09:15:37;;;;;;;16.08;6.20;;;19.80;99.90;;;;;;5024267;28;20048;-69
2023/10/03 09:18:09;;;;;;;13.73;5.93;;;19.90;99.90;;;;;;5038860;28;20467;-73
2023/10/03 09:20:35;;;;;;;15.93;6.00;;;19.80;99.90;;;;;;5053521;28;20025;-78
2023/10/03 09:23:07;;;;;;;14.70;5.82;;;19.80;99.90;;;;;;5022396;28;20502;-72
2023/10/03 09:25:35;;;;;;;17.98;6.05;;;19.80;99.90;;;;;;5040616;28;20030;-75
2023/10/03 09:28:08;;;;;;;18.05;5.88;;;19.70;99.90;;;;;;5043558;28;20030;-78
2023/10/03 09:30:37;;;;;;;13.90;5.80;;;19.60;99.90;;;;;;5042305;28;20056;-73
2023/10/03 09:33:08;;;;;;;13.93;5.95;;;19.60;99.90;;;;;;5042285;28;20041;-75
2023/10/03 09:35:34;;;;;;;14.60;5.88;;;19.60;99.90;;;;;;5027712;28;20034;-77
2023/10/03 09:38:06;;;;;;;13.43;5.22;;;19.60;99.90;;;;;;5052763;28;20120;-71
2023/10/03 09:40:51;;;;;;;15.73;5.72;;;19.60;99.90;;;;;;5026498;28;20037;-75
2023/10/03 09:43:27;;;;;;;14.35;6.22;;;19.60;99.90;;;;;;5047905;28;20163;-75
2023/10/03 09:45:56;;;;;;;12.85;6.03;;;19.70;99.90;;;;;;5047006;28;20085;-75
2023/10/03 09:48:26;;;;;;;16.02;6.30;;;19.70;99.90;;;;;;5047082;28;20052;-81
2023/10/03 09:51:05;;;;;;;15.77;6.00;;;19.70;99.90;;;;;;5029925;28;20026;-78
2023/10/03 09:53:32;;;;;;;17.20;7.07;;;19.70;99.90;;;;;;5047045;28;20132;-78
2023/10/03 09:56:00;;;;;;;14.35;6.18;;;19.60;99.90;;;;;;5047376;28;20022;-72
2023/10/03 09:58:31;;;;;;;14.50;6.25;;;19.50;99.90;;;;;;5029430;28;20032;-72
2023/10/03 10:00:57;;;;;;;24.88;7.28;;;19.30;99.90;;;;;;5029173;28;20026;-77
2023/10/03 10:03:37;;;;;;;13.10;6.55;;;19.10;99.90;;;;;;5046924;28;20021;-73
2023/10/03 10:06:12;;;;;;;22.50;7.47;;;18.80;99.90;;;;;;5029234;28;20056;-74
2023/10/03 10:08:48;;;;;;;17.63;7.75;;;18.60;99.90;;;;;;5046528;28;20048;-76
2023/10/03 10:11:14;;;;;;;22.63;7.57;;;18.30;99.90;;;;;;5029322;28;20082;-79
2023/10/03 10:14:08;;;;;;;16.73;7.57;;;18.20;99.90;;;;;;5046959;28;20037;-75
2023/10/03 10:16:34;;;;;;;16.42;7.68;;;18.10;99.90;;;;;;5026065;28;20029;-73
2023/10/03 10:19:00;;;;;;;17.02;8.55;;;17.90;99.90;;;;;;5046561;28;20022;-78
2023/10/03 10:21:38;;;;;;;23.17;9.27;;;17.80;99.90;;;;;;5046912;28;20022;-77
2023/10/03 10:24:16;;;;;;;23.60;9.32;;;17.80;99.90;;;;;;5028306;28;20034;-76
2023/10/03 10:26:49;;;;;;;23.20;9.35;;;17.70;99.90;;;;;;5029048;28;20026;-73
2023/10/03 10:29:35;;;;;;;19.87;8.00;;;17.60;99.90;;;;;;5047033;28;20037;-76
2023/10/03 10:32:17;;;;;;;20.05;8.48;;;17.60;99.90;;;;;;5028648;28;20300;-78
2023/10/03 10:34:46;;;;;;;21.92;9.18;;;17.50;99.90;;;;;;5028850;28;20063;-75
2023/10/03 10:37:17;;;;;;;16.02;7.65;;;17.50;99.90;;;;;;5046473;28;20026;-77
2023/10/03 10:39:56;;;;;;;12.98;5.00;;;17.50;99.90;;;;;;5046656;28;20041;-71
2023/10/03 10:42:26;;;;;;;14.45;6.28;;;17.40;99.90;;;;;;5028711;28;20539;-71
2023/10/03 10:45:03;;;;;;;16.75;6.25;;;17.20;99.90;;;;;;5046221;28;20116;-72
2023/10/03 10:47:35;;;;;;;12.10;4.43;;;17.20;99.90;;;;;;5027432;28;20096;-77
2023/10/03 10:50:01;;;;;;;12.95;4.28;;;17.10;99.90;;;;;;5028437;28;20108;-74
2023/10/03 10:52:30;;;;;;;15.27;4.00;;;17.10;99.90;;;;;;5045857;28;20040;-82
2023/10/03 10:54:59;;;;;;;11.23;3.60;;;17.00;99.90;;;;;;5027773;28;20025;-74
2023/10/03 10:57:30;;;;;;;11.60;3.40;;;16.90;99.90;;;;;;5028174;28;20029;-78
2023/10/03 10:59:56;;;;;;;12.43;2.95;;;16.90;99.90;;;;;;5028483;28;20033;-77
2023/10/03 11:02:24;;;;;;;9.00;2.92;;;16.90;99.90;;;;;;5024898;28;20030;-77
2023/10/03 11:04:59;;;;;;;12.30;3.00;;;16.80;99.90;;;;;;5027111;28;20420;-75
2023/10/03 11:07:26;;;;;;;;;;;16.80;99.90;;;;;;5028587;28;20029;-80
2023/10/03 11:09:54;;;;;;;12.80;3.03;;;16.80;99.90;;;;;;5045934;28;19905;-76
2023/10/03 11:12:27;;;;;;;7.18;2.13;;;16.80;99.90;;;;;;5027937;28;20048;-81
2023/10/03 11:14:57;;;;;;;14.45;2.50;;;16.80;99.90;;;;;;5028031;28;20038;-80
2023/10/03 11:17:23;;;;;;;9.20;2.22;;;16.70;99.90;;;;;;5026919;28;20031;-78
2023/10/03 11:19:50;;;;;;;8.73;1.83;;;16.80;99.90;;;;;;5026949;28;20030;-74
2023/10/03 11:22:17;;;;;;;8.73;1.73;;;16.80;99.90;;;;;;5045623;28;20021;-81
2023/10/03 11:24:46;;;;;;;11.27;1.98;;;16.80;99.90;;;;;;5026587;28;20033;-80
2023/10/03 11:27:25;;;;;;;7.90;1.45;;;16.80;99.90;;;;;;5045499;28;20030;-76
2023/10/03 11:29:51;;;;;;;8.73;1.05;;;16.70;99.90;;;;;;5027457;28;20025;-76
2023/10/03 11:32:32;;;;;;;5.85;1.00;;;16.70;99.90;;;;;;5027489;28;20038;-74
2023/10/03 11:35:13;;;;;;;5.72;0.95;;;16.60;99.90;;;;;;5045375;28;20052;-73
2023/10/03 11:37:43;;;;;;;1.35;0.43;;;16.50;99.90;;;;;;5027149;28;20025;-71
2023/10/03 11:40:23;;;;;;;1.67;0.50;;;16.40;99.90;;;;;;5045108;28;20060;-75
2023/10/03 11:43:07;;;;;;;1.15;0.30;;;16.30;99.90;;;;;;5045477;28;20037;-75
2023/10/03 11:45:34;;;;;;;4.72;0.65;;;16.30;99.90;;;;;;5027149;28;20037;-76
2023/10/03 11:48:01;;;;;;;4.88;0.57;;;16.30;99.90;;;;;;5023369;28;20061;-72
2023/10/03 11:50:28;;;;;;;3.70;0.70;;;16.30;99.90;;;;;;5025523;28;20022;-79
2023/10/03 11:52:56;;;;;;;1.85;0.45;;;16.30;99.90;;;;;;5023703;28;20034;-78
2023/10/03 11:55:23;;;;;;;5.22;0.70;;;16.40;99.90;;;;;;5024874;28;20025;-76
2023/10/03 11:57:49;;;;;;;6.85;0.80;;;16.40;99.90;;;;;;5023645;28;20180;-77
2023/10/03 12:00:15;;;;;;;4.50;0.68;;;16.40;99.90;;;;;;5023433;28;20026;-74
2023/10/03 12:02:45;;;;;;;4.90;0.75;;;16.30;99.90;;;;;;5023585;28;20120;-77
2023/10/03 12:05:11;;;;;;;4.22;0.50;;;16.30;99.90;;;;;;5024272;28;20021;-76
2023/10/03 12:07:39;;;;;;;5.90;0.88;;;16.20;99.90;;;;;;5023194;28;20470;-74
2023/10/03 12:10:12;;;;;;;5.22;0.73;;;16.20;99.90;;;;;;5023808;28;20089;-79
2023/10/03 12:12:38;;;;;;;2.35;0.45;;;16.20;99.90;;;;;;5024542;28;20037;-75
2023/10/03 12:15:12;;;;;;;5.28;0.60;;;16.20;99.90;;;;;;5024750;28;20117;-74
2023/10/03 12:17:42;;;;;;;5.80;1.02;;;16.10;99.90;;;;;;5023844;28;20022;-74
2023/10/03 12:20:13;;;;;;;4.32;0.65;;;16.00;99.90;;;;;;5022904;28;20064;-75
2023/10/03 12:22:44;;;;;;;5.57;0.80;;;16.00;99.90;;;;;;5024699;28;20400;-77
2023/10/03 12:25:15;;;;;;;4.63;0.40;;;16.00;99.90;;;;;;5023621;28;20061;-81
2023/10/03 12:27:43;;;;;;;7.13;1.00;;;16.00;99.90;;;;;;5021666;28;20938;-71
2023/10/03 12:30:11;;;;;;;7.25;1.20;;;16.10;99.90;;;;;;5023399;28;20093;-77
2023/10/03 12:32:42;;;;;;;6.15;0.77;;;16.10;99.90;;;;;;5024061;28;20514;-77
2023/10/03 12:35:09;;;;;;;12.10;1.40;;;16.20;99.90;;;;;;5023995;28;20034;-77
2023/10/03 12:37:36;;;;;;;5.55;1.10;;;16.30;99.90;;;;;;5022973;28;20026;-78
2023/10/03 12:40:13;;;;;;;4.85;1.00;;;16.40;99.90;;;;;;5022824;28;20057;-75
2023/10/03 12:42:43;;;;;;;8.48;1.88;;;16.50;99.90;;;;;;5024162;28;20482;-74
2023/10/03 12:45:12;;;;;;;4.75;0.90;;;16.60;99.90;;;;;;5024538;28;20026;-76
2023/10/03 12:47:39;;;;;;;9.95;1.00;;;16.60;99.90;;;;;;5022675;28;20052;-79
2023/10/03 12:50:07;;;;;;;9.05;1.10;;;16.50;99.90;;;;;;5023841;28;20029;-76